createdAt,value
2018-02-20T00:00:30.299Z,930.41
2018-02-20T00:01:30.314Z,930.40
2018-02-20T00:02:30.290Z,930.42
2018-02-20T00:03:30.286Z,930.45
2018-02-20T00:04:30.284Z,930.43
2018-02-20T00:05:30.282Z,930.45
2018-02-20T00:06:30.278Z,930.45
2018-02-20T00:07:30.271Z,930.45
2018-02-20T00:08:30.271Z,930.44
2018-02-20T00:09:30.267Z,930.44
2018-02-20T00:10:30.265Z,930.48
2018-02-20T00:11:30.265Z,930.46
2018-02-20T00:12:30.257Z,930.50
2018-02-20T00:13:30.253Z,930.46
2018-02-20T00:14:30.251Z,930.44
2018-02-20T00:15:30.246Z,930.48
2018-02-20T00:16:30.241Z,930.46
2018-02-20T00:17:30.238Z,930.47
2018-02-20T00:18:30.234Z,930.46
2018-02-20T00:19:30.230Z,930.45
2018-02-20T00:20:30.227Z,930.52
2018-02-20T00:21:30.245Z,930.55
2018-02-20T00:22:30.222Z,930.53
2018-02-20T00:23:30.215Z,930.54
2018-02-20T00:24:30.216Z,930.55
2018-02-20T00:25:30.211Z,930.58
2018-02-20T00:26:30.207Z,930.52
2018-02-20T00:27:30.200Z,930.53
2018-02-20T00:28:30.199Z,930.49
2018-02-20T00:29:30.196Z,930.50
2018-02-20T00:30:30.190Z,930.46
2018-02-20T00:31:30.189Z,930.48
2018-02-20T00:32:30.182Z,930.46
2018-02-20T00:33:30.181Z,930.47
2018-02-20T00:34:30.182Z,930.46
2018-02-20T00:35:30.172Z,930.49
2018-02-20T00:36:30.168Z,930.46
2018-02-20T00:37:30.163Z,930.48
2018-02-20T00:38:30.160Z,930.48
2018-02-20T00:39:30.157Z,930.49
2018-02-20T00:40:30.154Z,930.48
2018-02-20T00:41:30.148Z,930.50
2018-02-20T00:42:30.144Z,930.49
2018-02-20T00:43:30.139Z,930.49
2018-02-20T00:44:30.136Z,930.54
2018-02-20T00:45:30.132Z,930.50
2018-02-20T00:46:30.129Z,930.50
2018-02-20T00:47:30.124Z,930.47
2018-02-20T00:48:30.122Z,930.49
2018-02-20T00:49:30.118Z,930.44
2018-02-20T00:50:30.114Z,930.43
2018-02-20T00:51:30.110Z,930.41
2018-02-20T00:52:30.106Z,930.41
2018-02-20T00:53:30.103Z,930.39
2018-02-20T00:54:30.098Z,930.42
2018-02-20T00:55:30.095Z,930.40
2018-02-20T00:56:30.091Z,930.48
2018-02-20T00:57:30.087Z,930.43
2018-02-20T00:58:30.083Z,930.44
2018-02-20T00:59:30.079Z,930.49
2018-02-20T01:00:30.076Z,930.45
2018-02-20T01:01:30.075Z,930.48
2018-02-20T01:02:30.068Z,930.49
2018-02-20T01:03:30.068Z,930.50
2018-02-20T01:04:30.060Z,930.53
2018-02-20T01:05:30.068Z,930.53
2018-02-20T01:06:30.053Z,930.49
2018-02-20T01:07:30.048Z,930.50
2018-02-20T01:08:30.045Z,930.50
2018-02-20T01:09:30.045Z,930.45
2018-02-20T01:10:30.039Z,930.47
2018-02-20T01:11:30.033Z,930.47
2018-02-20T01:12:30.030Z,930.46
2018-02-20T01:13:30.028Z,930.46
2018-02-20T01:14:30.022Z,930.46
2018-02-20T01:15:30.023Z,930.44
2018-02-20T01:16:30.016Z,930.43
2018-02-20T01:17:30.016Z,930.43
2018-02-20T01:18:30.007Z,930.43
2018-02-20T01:19:30.009Z,930.39
2018-02-20T01:20:30.000Z,930.37
2018-02-20T01:21:30.007Z,930.35
2018-02-20T01:22:29.993Z,930.34
2018-02-20T01:23:30.004Z,930.36
2018-02-20T01:24:29.985Z,930.36
2018-02-20T01:25:29.980Z,930.37
2018-02-20T01:26:29.977Z,930.40
2018-02-20T01:27:29.972Z,930.39
2018-02-20T01:28:29.969Z,930.39
2018-02-20T01:29:29.966Z,930.38
2018-02-20T01:30:29.964Z,930.38
2018-02-20T01:31:29.956Z,930.43
2018-02-20T01:32:29.952Z,930.42
2018-02-20T01:33:29.953Z,930.40
2018-02-20T01:34:29.945Z,930.38
2018-02-20T01:35:29.941Z,930.39
2018-02-20T01:36:29.936Z,930.36
2018-02-20T01:37:29.933Z,930.40
2018-02-20T01:38:29.929Z,930.40
2018-02-20T01:39:29.924Z,930.39
2018-02-20T01:40:29.921Z,930.40
2018-02-20T01:41:29.917Z,930.40
2018-02-20T01:42:29.913Z,930.38
2018-02-20T01:43:29.910Z,930.36
2018-02-20T01:44:29.905Z,930.34
2018-02-20T01:45:29.901Z,930.36
2018-02-20T01:46:29.898Z,930.35
2018-02-20T01:47:29.893Z,930.35
2018-02-20T01:48:29.889Z,930.34
2018-02-20T01:49:29.886Z,930.30
2018-02-20T01:50:29.881Z,930.31
2018-02-20T01:51:29.877Z,930.27
2018-02-20T01:52:29.873Z,930.26
2018-02-20T01:53:29.869Z,930.24
2018-02-20T01:54:29.867Z,930.23
2018-02-20T01:55:29.861Z,930.22
2018-02-20T01:56:29.857Z,930.21
2018-02-20T01:57:29.853Z,930.21
2018-02-20T01:58:29.849Z,930.23
2018-02-20T01:59:29.845Z,930.17
2018-02-20T02:00:29.841Z,930.20
2018-02-20T02:01:29.837Z,930.17
2018-02-20T02:02:29.838Z,930.19
2018-02-20T02:03:29.829Z,930.16
2018-02-20T02:04:29.827Z,930.14
2018-02-20T02:05:29.822Z,930.12
2018-02-20T02:06:29.819Z,930.07
2018-02-20T02:07:29.813Z,930.08
2018-02-20T02:08:29.810Z,930.08
2018-02-20T02:09:29.811Z,930.06
2018-02-20T02:10:29.802Z,930.07
2018-02-20T02:11:29.797Z,930.10
2018-02-20T02:12:29.793Z,930.08
2018-02-20T02:13:29.788Z,930.04
2018-02-20T02:14:29.785Z,930.02
2018-02-20T02:15:29.781Z,930.02
2018-02-20T02:16:29.776Z,930.01
2018-02-20T02:17:29.772Z,930.01
2018-02-20T02:18:29.768Z,929.99
2018-02-20T02:19:29.764Z,929.98
2018-02-20T02:20:29.762Z,929.94
2018-02-20T02:21:29.756Z,929.93
2018-02-20T02:22:29.751Z,929.97
2018-02-20T02:23:29.746Z,929.93
2018-02-20T02:24:29.746Z,929.93
2018-02-20T02:25:29.738Z,929.88
2018-02-20T02:26:29.734Z,929.88
2018-02-20T02:27:29.729Z,929.88
2018-02-20T02:28:29.725Z,929.85
2018-02-20T02:29:29.722Z,929.86
2018-02-20T02:30:29.718Z,929.87
2018-02-20T02:31:29.713Z,929.86
2018-02-20T02:32:29.719Z,929.87
2018-02-20T02:33:29.706Z,929.87
2018-02-20T02:34:29.701Z,929.85
2018-02-20T02:35:29.697Z,929.82
2018-02-20T02:36:29.694Z,929.80
2018-02-20T02:37:29.688Z,929.80
2018-02-20T02:38:29.684Z,929.78
2018-02-20T02:39:29.680Z,929.78
2018-02-20T02:40:29.680Z,929.76
2018-02-20T02:41:29.673Z,929.77
2018-02-20T02:42:29.673Z,929.75
2018-02-20T02:43:29.663Z,929.74
2018-02-20T02:44:29.659Z,929.68
2018-02-20T02:45:29.660Z,929.69
2018-02-20T02:46:29.652Z,929.63
2018-02-20T02:47:29.646Z,929.62
2018-02-20T02:48:29.644Z,929.60
2018-02-20T02:49:29.643Z,929.58
2018-02-20T02:50:29.635Z,929.58
2018-02-20T02:51:29.635Z,929.60
2018-02-20T02:52:29.631Z,929.59
2018-02-20T02:53:29.622Z,929.60
2018-02-20T02:54:29.620Z,929.61
2018-02-20T02:55:29.614Z,929.60
2018-02-20T02:56:29.610Z,929.59
2018-02-20T02:57:29.611Z,929.65
2018-02-20T02:58:29.602Z,929.61
2018-02-20T02:59:29.595Z,929.60
2018-02-20T03:00:29.597Z,929.57
2018-02-20T03:01:29.588Z,929.57
2018-02-20T03:02:29.583Z,929.53
2018-02-20T03:03:29.578Z,929.56
2018-02-20T03:04:29.576Z,929.52
2018-02-20T03:05:29.571Z,929.55
2018-02-20T03:06:29.566Z,929.53
2018-02-20T03:07:29.561Z,929.52
2018-02-20T03:08:29.557Z,929.51
2018-02-20T03:09:29.558Z,929.53
2018-02-20T03:10:29.554Z,929.53
2018-02-20T03:11:29.544Z,929.49
2018-02-20T03:12:29.541Z,929.49
2018-02-20T03:13:29.541Z,929.49
2018-02-20T03:14:29.540Z,929.48
2018-02-20T03:15:29.532Z,929.50
2018-02-20T03:16:29.527Z,929.49
2018-02-20T03:17:29.520Z,929.50
2018-02-20T03:18:29.520Z,929.54
2018-02-20T03:19:29.511Z,929.50
2018-02-20T03:20:29.510Z,929.56
2018-02-20T03:21:29.507Z,929.56
2018-02-20T03:22:29.498Z,929.55
2018-02-20T03:23:29.493Z,929.55
2018-02-20T03:24:29.494Z,929.53
2018-02-20T03:25:29.490Z,929.53
2018-02-20T03:26:29.482Z,929.48
2018-02-20T03:27:29.481Z,929.48
2018-02-20T03:28:29.473Z,929.51
2018-02-20T03:29:29.469Z,929.50
2018-02-20T03:30:29.464Z,929.52
2018-02-20T03:31:29.461Z,929.51
2018-02-20T03:32:29.456Z,929.54
2018-02-20T03:33:29.452Z,929.53
2018-02-20T03:34:29.447Z,929.54
2018-02-20T03:35:29.443Z,929.56
2018-02-20T03:36:29.448Z,929.62
2018-02-20T03:37:29.435Z,929.57
2018-02-20T03:38:29.435Z,929.59
2018-02-20T03:39:29.426Z,929.56
2018-02-20T03:40:29.426Z,929.52
2018-02-20T03:41:29.418Z,929.54
2018-02-20T03:42:29.421Z,929.51
2018-02-20T03:43:29.409Z,929.49
2018-02-20T03:44:29.405Z,929.52
2018-02-20T03:45:29.401Z,929.51
2018-02-20T03:46:29.402Z,929.52
2018-02-20T03:47:29.394Z,929.50
2018-02-20T03:48:29.394Z,929.50
2018-02-20T03:49:29.385Z,929.46
2018-02-20T03:50:29.386Z,929.46
2018-02-20T03:51:29.381Z,929.44
2018-02-20T03:52:29.377Z,929.45
2018-02-20T03:53:29.373Z,929.44
2018-02-20T03:54:29.381Z,929.48
2018-02-20T03:55:29.383Z,929.40
2018-02-20T03:56:29.372Z,929.43
2018-02-20T03:57:29.352Z,929.42
2018-02-20T03:58:29.369Z,929.40
2018-02-20T03:59:29.360Z,929.42
2018-02-20T04:00:29.343Z,929.39
2018-02-20T04:01:29.335Z,929.36
2018-02-20T04:02:29.332Z,929.33
2018-02-20T04:03:29.326Z,929.31
2018-02-20T04:04:29.327Z,929.31
2018-02-20T04:05:29.322Z,929.31
2018-02-20T04:06:29.314Z,929.28
2018-02-20T04:07:29.309Z,929.28
2018-02-20T04:08:29.323Z,929.24
2018-02-20T04:09:29.301Z,929.20
2018-02-20T04:10:29.301Z,929.22
2018-02-20T04:11:29.292Z,929.16
2018-02-20T04:12:29.293Z,929.15
2018-02-20T04:13:29.287Z,929.08
2018-02-20T04:14:29.280Z,929.07
2018-02-20T04:15:29.280Z,929.03
2018-02-20T04:16:29.272Z,929.00
2018-02-20T04:17:29.284Z,928.92
2018-02-20T04:18:29.280Z,928.91
2018-02-20T04:19:29.261Z,928.89
2018-02-20T04:20:29.253Z,928.89
2018-02-20T04:21:29.250Z,928.85
2018-02-20T04:22:29.244Z,928.83
2018-02-20T04:23:29.299Z,928.83
2018-02-20T04:24:29.256Z,928.78
2018-02-20T04:25:29.238Z,928.70
2018-02-20T04:26:29.227Z,928.67
2018-02-20T04:27:29.226Z,928.67
2018-02-20T04:28:29.221Z,928.68
2018-02-20T04:29:29.213Z,928.68
2018-02-20T04:30:29.213Z,928.68
2018-02-20T04:31:29.208Z,928.66
2018-02-20T04:32:29.203Z,928.67
2018-02-20T04:33:29.199Z,928.65
2018-02-20T04:34:29.195Z,928.62
2018-02-20T04:35:29.189Z,928.64
2018-02-20T04:36:29.182Z,928.61
2018-02-20T04:37:29.176Z,928.67
2018-02-20T04:38:29.176Z,928.62
2018-02-20T04:39:29.167Z,928.64
2018-02-20T04:40:29.179Z,928.61
2018-02-20T04:41:29.158Z,928.61
2018-02-20T04:42:29.158Z,928.60
2018-02-20T04:43:29.149Z,928.60
2018-02-20T04:44:29.145Z,928.61
2018-02-20T04:45:29.145Z,928.64
2018-02-20T04:46:29.158Z,928.64
2018-02-20T04:47:29.135Z,928.68
2018-02-20T04:48:29.127Z,928.65
2018-02-20T04:49:29.140Z,928.67
2018-02-20T04:50:29.122Z,928.69
2018-02-20T04:51:29.117Z,928.72
2018-02-20T04:52:29.112Z,928.72
2018-02-20T04:53:29.105Z,928.71
2018-02-20T04:54:29.100Z,928.70
2018-02-20T04:55:29.099Z,928.70
2018-02-20T04:56:29.091Z,928.66
2018-02-20T04:57:29.086Z,928.68
2018-02-20T04:58:29.087Z,928.66
2018-02-20T04:59:29.077Z,928.62
2018-02-20T05:00:29.078Z,928.60
2018-02-20T05:01:29.069Z,928.62
2018-02-20T05:02:29.069Z,928.53
2018-02-20T05:03:29.059Z,928.52
2018-02-20T05:04:29.060Z,928.45
2018-02-20T05:05:29.055Z,928.47
2018-02-20T05:06:29.047Z,928.44
2018-02-20T05:07:29.046Z,928.43
2018-02-20T05:08:29.042Z,928.38
2018-02-20T05:09:29.037Z,928.34
2018-02-20T05:10:29.033Z,928.36
2018-02-20T05:11:29.028Z,928.34
2018-02-20T05:12:29.020Z,928.36
2018-02-20T05:13:29.015Z,928.35
2018-02-20T05:14:29.011Z,928.36
2018-02-20T05:15:29.011Z,928.40
2018-02-20T05:16:29.002Z,928.41
2018-02-20T05:17:29.002Z,928.42
2018-02-20T05:18:28.994Z,928.44
2018-02-20T05:19:28.992Z,928.47
2018-02-20T05:20:28.988Z,928.49
2018-02-20T05:21:28.981Z,928.48
2018-02-20T05:22:28.975Z,928.52
2018-02-20T05:23:28.970Z,928.53
2018-02-20T05:24:28.966Z,928.57
2018-02-20T05:25:28.960Z,928.54
2018-02-20T05:26:28.957Z,928.53
2018-02-20T05:27:28.952Z,928.51
2018-02-20T05:28:28.953Z,928.57
2018-02-20T05:29:28.944Z,928.52
2018-02-20T05:30:28.939Z,928.51
2018-02-20T05:31:28.935Z,928.54
2018-02-20T05:32:28.933Z,928.52
2018-02-20T05:33:28.926Z,928.52
2018-02-20T05:34:28.926Z,928.46
2018-02-20T05:35:28.917Z,928.45
2018-02-20T05:36:28.912Z,928.40
2018-02-20T05:37:28.903Z,928.40
2018-02-20T05:38:28.912Z,928.40
2018-02-20T05:39:28.900Z,928.36
2018-02-20T05:40:28.896Z,928.33
2018-02-20T05:41:28.896Z,928.32
2018-02-20T05:42:28.880Z,928.32
2018-02-20T05:43:28.877Z,928.30
2018-02-20T05:44:28.876Z,928.30
2018-02-20T05:45:28.869Z,928.29
2018-02-20T05:46:28.862Z,928.25
2018-02-20T05:47:28.892Z,928.24
2018-02-20T05:48:28.859Z,928.29
2018-02-20T05:49:28.849Z,928.24
2018-02-20T05:50:28.858Z,928.25
2018-02-20T05:51:28.858Z,928.27
2018-02-20T05:52:28.836Z,928.24
2018-02-20T05:53:28.836Z,928.32
2018-02-20T05:54:28.844Z,928.32
2018-02-20T05:55:28.827Z,928.30
2018-02-20T05:56:28.823Z,928.31
2018-02-20T05:57:28.818Z,928.35
2018-02-20T05:58:28.818Z,928.34
2018-02-20T05:59:28.812Z,928.31
2018-02-20T06:00:28.804Z,928.35
2018-02-20T06:01:28.803Z,928.34
2018-02-20T06:02:28.798Z,928.36
2018-02-20T06:03:28.800Z,928.39
2018-02-20T06:04:28.784Z,928.34
2018-02-20T06:05:28.786Z,928.37
2018-02-20T06:06:28.777Z,928.37
2018-02-20T06:07:28.770Z,928.40
2018-02-20T06:08:28.770Z,928.41
2018-02-20T06:09:28.761Z,928.43
2018-02-20T06:10:28.756Z,928.49
2018-02-20T06:11:28.751Z,928.44
2018-02-20T06:12:28.746Z,928.48
2018-02-20T06:13:28.742Z,928.43
2018-02-20T06:14:28.737Z,928.36
2018-02-20T06:15:28.731Z,928.32
2018-02-20T06:16:28.831Z,928.32
2018-02-20T06:17:28.721Z,928.32
2018-02-20T06:18:28.722Z,928.28
2018-02-20T06:19:28.715Z,928.26
2018-02-20T06:20:28.707Z,928.22
2018-02-20T06:21:28.751Z,928.22
2018-02-20T06:22:28.680Z,928.20
2018-02-20T06:23:28.691Z,928.22
2018-02-20T06:24:28.684Z,928.18
2018-02-20T06:25:28.686Z,928.21
2018-02-20T06:26:28.664Z,928.23
2018-02-20T06:27:28.675Z,928.23
2018-02-20T06:28:28.670Z,928.18
2018-02-20T06:29:28.656Z,928.14
2018-02-20T06:30:28.660Z,928.13
2018-02-20T06:31:28.633Z,928.09
2018-02-20T06:32:28.637Z,928.06
2018-02-20T06:33:28.622Z,928.09
2018-02-20T06:34:28.618Z,928.06
2018-02-20T06:35:28.616Z,928.06
2018-02-20T06:36:28.622Z,928.12
2018-02-20T06:37:28.620Z,928.10
2018-02-20T06:38:28.596Z,928.04
2018-02-20T06:39:28.609Z,928.11
2018-02-20T06:40:28.681Z,928.10
2018-02-20T06:41:28.590Z,928.09
2018-02-20T06:42:28.570Z,928.07
2018-02-20T06:43:28.583Z,928.08
2018-02-20T06:44:28.573Z,928.04
2018-02-20T06:45:28.573Z,928.04
2018-02-20T06:46:28.648Z,928.12
2018-02-20T06:47:28.541Z,928.13
2018-02-20T06:48:28.557Z,928.15
2018-02-20T06:49:28.546Z,928.14
2018-02-20T06:50:28.546Z,928.15
2018-02-20T06:51:28.525Z,928.16
2018-02-20T06:52:28.514Z,928.16
2018-02-20T06:53:28.510Z,928.19
2018-02-20T06:54:28.526Z,928.20
2018-02-20T06:55:28.508Z,928.17
2018-02-20T06:56:28.499Z,928.18
2018-02-20T06:57:28.494Z,928.16
2018-02-20T06:58:28.492Z,928.21
2018-02-20T06:59:28.497Z,928.16
2018-02-20T07:00:28.492Z,928.18
2018-02-20T07:01:28.487Z,928.19
2018-02-20T07:02:28.485Z,928.14
2018-02-20T07:03:28.479Z,928.15
2018-02-20T07:04:28.474Z,928.18
2018-02-20T07:05:28.458Z,928.18
2018-02-20T07:06:28.449Z,928.17
2018-02-20T07:07:28.442Z,928.19
2018-02-20T07:08:28.428Z,928.20
2018-02-20T07:09:28.433Z,928.23
2018-02-20T07:10:28.427Z,928.24
2018-02-20T07:11:28.415Z,928.22
2018-02-20T07:12:28.420Z,928.27
2018-02-20T07:13:28.424Z,928.27
2018-02-20T07:14:28.405Z,928.31
2018-02-20T07:15:28.412Z,928.25
2018-02-20T07:16:28.407Z,928.27
2018-02-20T07:17:28.387Z,928.31
2018-02-20T07:18:28.393Z,928.33
2018-02-20T07:19:28.386Z,928.36
2018-02-20T07:20:28.385Z,928.33
2018-02-20T07:21:28.370Z,928.38
2018-02-20T07:22:28.369Z,928.35
2018-02-20T07:23:28.368Z,928.36
2018-02-20T07:24:28.347Z,928.35
2018-02-20T07:25:28.356Z,928.35
2018-02-20T07:26:28.341Z,928.30
2018-02-20T07:27:28.336Z,928.33
2018-02-20T07:28:28.316Z,928.36
2018-02-20T07:29:28.320Z,928.39
2018-02-20T07:30:28.306Z,928.39
2018-02-20T07:31:28.299Z,928.41
2018-02-20T07:32:28.298Z,928.42
2018-02-20T07:33:28.308Z,928.46
2018-02-20T07:34:28.293Z,928.48
2018-02-20T07:35:28.276Z,928.55
2018-02-20T07:36:28.287Z,928.55
2018-02-20T07:37:28.291Z,928.57
2018-02-20T07:38:28.307Z,928.61
2018-02-20T07:39:28.264Z,928.60
2018-02-20T07:40:28.250Z,928.58
2018-02-20T07:41:28.270Z,928.56
2018-02-20T07:42:28.239Z,928.53
2018-02-20T07:43:28.242Z,928.52
2018-02-20T07:44:28.250Z,928.53
2018-02-20T07:45:28.239Z,928.50
2018-02-20T07:46:28.234Z,928.50
2018-02-20T07:47:28.212Z,928.51
2018-02-20T07:48:28.205Z,928.49
2018-02-20T07:49:28.218Z,928.49
2018-02-20T07:50:28.212Z,928.49
2018-02-20T07:51:28.208Z,928.52
2018-02-20T07:52:28.200Z,928.54
2018-02-20T07:53:28.195Z,928.56
2018-02-20T07:54:28.190Z,928.57
2018-02-20T07:55:28.167Z,928.56
2018-02-20T07:56:28.161Z,928.57
2018-02-20T07:57:28.173Z,928.59
2018-02-20T07:58:28.169Z,928.59
2018-02-20T07:59:28.145Z,928.60
2018-02-20T08:00:28.139Z,928.55
2018-02-20T08:01:28.134Z,928.59
2018-02-20T08:02:28.132Z,928.57
2018-02-20T08:03:28.122Z,928.59
2018-02-20T08:04:28.134Z,928.63
2018-02-20T08:05:28.132Z,928.63
2018-02-20T08:06:28.124Z,928.67
2018-02-20T08:07:28.115Z,928.67
2018-02-20T08:08:28.110Z,928.71
2018-02-20T08:09:28.108Z,928.73
2018-02-20T08:10:28.200Z,928.76
2018-02-20T08:11:28.095Z,928.78
2018-02-20T08:12:28.089Z,928.78
2018-02-20T08:13:28.084Z,928.77
2018-02-20T08:14:28.081Z,928.78
2018-02-20T08:15:28.071Z,928.79
2018-02-20T08:16:28.053Z,928.77
2018-02-20T08:17:28.086Z,928.84
2018-02-20T08:18:28.053Z,928.89
2018-02-20T08:19:28.036Z,928.87
2018-02-20T08:20:28.045Z,928.85
2018-02-20T08:21:28.039Z,928.85
2018-02-20T08:22:28.043Z,928.86
2018-02-20T08:23:28.014Z,928.82
2018-02-20T08:24:28.022Z,928.81
2018-02-20T08:25:28.002Z,928.78
2018-02-20T08:26:27.998Z,928.78
2018-02-20T08:27:28.006Z,928.78
2018-02-20T08:28:28.001Z,928.77
2018-02-20T08:29:27.995Z,928.73
2018-02-20T08:30:27.990Z,928.74
2018-02-20T08:31:27.968Z,928.74
2018-02-20T08:32:27.989Z,928.75
2018-02-20T08:33:27.962Z,928.76
2018-02-20T08:34:27.955Z,928.77
2018-02-20T08:35:27.971Z,928.74
2018-02-20T08:36:27.967Z,928.72
2018-02-20T08:37:27.951Z,928.70
2018-02-20T08:38:27.946Z,928.70
2018-02-20T08:39:27.939Z,928.69
2018-02-20T08:40:27.929Z,928.68
2018-02-20T08:41:27.913Z,928.72
2018-02-20T08:42:27.959Z,928.73
2018-02-20T08:43:27.902Z,928.67
2018-02-20T08:44:27.897Z,928.70
2018-02-20T08:45:27.891Z,928.72
2018-02-20T08:46:27.889Z,928.66
2018-02-20T08:47:27.889Z,928.64
2018-02-20T08:48:27.876Z,928.68
2018-02-20T08:49:27.870Z,928.73
2018-02-20T08:50:27.864Z,928.78
2018-02-20T08:51:27.858Z,928.74
2018-02-20T08:52:27.865Z,928.72
2018-02-20T08:53:27.847Z,928.74
2018-02-20T08:54:27.847Z,928.73
2018-02-20T08:55:27.835Z,928.73
2018-02-20T08:56:27.829Z,928.73
2018-02-20T08:57:27.824Z,928.80
2018-02-20T08:58:27.819Z,928.82
2018-02-20T08:59:27.812Z,928.82
2018-02-20T09:00:27.816Z,928.84
2018-02-20T09:01:27.803Z,928.81
2018-02-20T09:02:27.805Z,928.85
2018-02-20T09:03:27.790Z,928.83
2018-02-20T09:04:27.794Z,928.89
2018-02-20T09:05:27.788Z,928.88
2018-02-20T09:06:27.787Z,928.91
2018-02-20T09:07:27.776Z,928.95
2018-02-20T09:08:27.762Z,928.96
2018-02-20T09:09:27.770Z,928.94
2018-02-20T09:10:27.765Z,928.94
2018-02-20T09:11:27.745Z,928.91
2018-02-20T09:12:27.739Z,928.90
2018-02-20T09:13:27.734Z,928.86
2018-02-20T09:14:27.746Z,928.88
2018-02-20T09:15:27.723Z,928.89
2018-02-20T09:16:27.817Z,928.81
2018-02-20T09:17:27.726Z,928.92
2018-02-20T09:18:27.723Z,928.93
2018-02-20T09:19:27.714Z,928.93
2018-02-20T09:20:27.709Z,928.98
2018-02-20T09:21:27.705Z,929.00
2018-02-20T09:22:27.697Z,928.94
2018-02-20T09:23:27.701Z,928.96
2018-02-20T09:24:27.672Z,928.95
2018-02-20T09:25:27.680Z,928.99
2018-02-20T09:26:27.675Z,929.02
2018-02-20T09:27:27.669Z,929.03
2018-02-20T09:28:27.673Z,929.06
2018-02-20T09:29:27.658Z,929.06
2018-02-20T09:30:27.662Z,929.04
2018-02-20T09:31:27.645Z,929.04
2018-02-20T09:32:27.639Z,929.02
2018-02-20T09:33:27.635Z,929.03
2018-02-20T09:34:27.629Z,929.05
2018-02-20T09:35:27.622Z,929.03
2018-02-20T09:36:27.617Z,929.04
2018-02-20T09:37:27.616Z,929.01
2018-02-20T09:38:27.610Z,929.03
2018-02-20T09:39:27.600Z,929.01
2018-02-20T09:40:27.594Z,929.06
2018-02-20T09:41:27.598Z,929.04
2018-02-20T09:42:27.592Z,929.04
2018-02-20T09:43:27.576Z,929.06
2018-02-20T09:44:27.571Z,929.05
2018-02-20T09:45:27.565Z,929.02
2018-02-20T09:46:27.569Z,929.04
2018-02-20T09:47:27.556Z,929.08
2018-02-20T09:48:27.548Z,929.08
2018-02-20T09:49:27.543Z,929.08
2018-02-20T09:50:27.537Z,929.20
2018-02-20T09:51:27.542Z,929.13
2018-02-20T09:52:27.535Z,929.12
2018-02-20T09:53:27.529Z,929.11
2018-02-20T09:54:27.514Z,929.08
2018-02-20T09:55:27.510Z,929.14
2018-02-20T09:56:27.515Z,929.10
2018-02-20T09:57:27.499Z,929.11
2018-02-20T09:58:27.491Z,929.10
2018-02-20T09:59:27.488Z,929.12
2018-02-20T10:00:27.483Z,929.14
2018-02-20T10:01:27.486Z,929.12
2018-02-20T10:02:27.473Z,929.19
2018-02-20T10:03:27.464Z,929.16
2018-02-20T10:04:27.459Z,929.13
2018-02-20T10:05:27.454Z,929.13
2018-02-20T10:06:27.453Z,929.12
2018-02-20T10:07:27.447Z,929.13
2018-02-20T10:08:27.436Z,929.09
2018-02-20T10:09:27.431Z,929.10
2018-02-20T10:10:27.426Z,929.08
2018-02-20T10:11:27.420Z,929.20
2018-02-20T10:12:27.414Z,929.22
2018-02-20T10:13:27.419Z,929.20
2018-02-20T10:14:27.405Z,929.13
2018-02-20T10:15:27.397Z,929.20
2018-02-20T10:16:27.498Z,929.18
2018-02-20T10:17:27.400Z,929.15
2018-02-20T10:18:27.387Z,929.12
2018-02-20T10:19:27.381Z,929.18
2018-02-20T10:20:27.371Z,929.22
2018-02-20T10:21:27.370Z,929.26
2018-02-20T10:22:27.365Z,929.27
2018-02-20T10:23:27.336Z,929.27
2018-02-20T10:24:27.336Z,929.30
2018-02-20T10:25:27.352Z,929.29
2018-02-20T10:26:27.347Z,929.23
2018-02-20T10:27:27.319Z,929.18
2018-02-20T10:28:27.332Z,929.27
2018-02-20T10:29:27.304Z,929.29
2018-02-20T10:30:27.309Z,929.29
2018-02-20T10:31:27.298Z,929.30
2018-02-20T10:32:27.292Z,929.32
2018-02-20T10:33:27.283Z,929.30
2018-02-20T10:34:27.277Z,929.34
2018-02-20T10:35:27.276Z,929.27
2018-02-20T10:36:27.271Z,929.28
2018-02-20T10:37:27.287Z,929.29
2018-02-20T10:38:27.265Z,929.28
2018-02-20T10:39:27.255Z,929.29
2018-02-20T10:40:27.270Z,929.33
2018-02-20T10:41:27.245Z,929.32
2018-02-20T10:42:27.251Z,929.30
2018-02-20T10:43:27.230Z,929.29
2018-02-20T10:44:27.245Z,929.31
2018-02-20T10:45:27.236Z,929.32
2018-02-20T10:46:27.231Z,929.36
2018-02-20T10:47:27.444Z,929.36
2018-02-20T10:48:27.202Z,929.29
2018-02-20T10:49:27.214Z,929.32
2018-02-20T10:50:27.194Z,929.41
2018-02-20T10:51:27.187Z,929.40
2018-02-20T10:52:27.199Z,929.36
2018-02-20T10:53:27.183Z,929.38
2018-02-20T10:54:27.172Z,929.43
2018-02-20T10:55:27.183Z,929.43
2018-02-20T10:56:27.183Z,929.42
2018-02-20T10:57:27.179Z,929.51
2018-02-20T10:58:27.168Z,929.49
2018-02-20T10:59:27.163Z,929.50
2018-02-20T11:00:27.159Z,929.51
2018-02-20T11:01:27.153Z,929.56
2018-02-20T11:02:27.149Z,929.59
2018-02-20T11:03:27.144Z,929.53
2018-02-20T11:04:27.148Z,929.55
2018-02-20T11:05:27.135Z,929.55
2018-02-20T11:06:27.130Z,929.60
2018-02-20T11:07:27.134Z,929.56
2018-02-20T11:08:27.129Z,929.56
2018-02-20T11:09:27.118Z,929.58
2018-02-20T11:10:27.113Z,929.59
2018-02-20T11:11:27.114Z,929.60
2018-02-20T11:12:27.107Z,929.63
2018-02-20T11:13:27.105Z,929.68
2018-02-20T11:14:27.100Z,929.72
2018-02-20T11:15:27.095Z,929.70
2018-02-20T11:16:27.087Z,929.71
2018-02-20T11:17:27.075Z,929.75
2018-02-20T11:18:27.077Z,929.74
2018-02-20T11:19:27.072Z,929.74
2018-02-20T11:20:27.071Z,929.73
2018-02-20T11:21:27.218Z,929.77
2018-02-20T11:22:27.054Z,929.75
2018-02-20T11:23:27.051Z,929.69
2018-02-20T11:24:27.052Z,929.76
2018-02-20T11:25:27.038Z,929.74
2018-02-20T11:26:27.043Z,929.77
2018-02-20T11:27:27.036Z,929.70
2018-02-20T11:28:27.028Z,929.81
2018-02-20T11:29:27.027Z,929.81
2018-02-20T11:30:27.023Z,929.81
2018-02-20T11:31:27.024Z,929.82
2018-02-20T11:32:27.013Z,929.76
2018-02-20T11:33:27.014Z,929.74
2018-02-20T11:34:27.002Z,929.71
2018-02-20T11:35:26.997Z,929.67
2018-02-20T11:36:26.998Z,929.67
2018-02-20T11:37:26.991Z,929.68
2018-02-20T11:38:26.993Z,929.67
2018-02-20T11:39:26.984Z,929.64
2018-02-20T11:40:26.977Z,929.67
2018-02-20T11:41:26.970Z,929.68
2018-02-20T11:42:26.972Z,929.65
2018-02-20T11:43:26.969Z,929.73
2018-02-20T11:44:26.957Z,929.68
2018-02-20T11:45:26.950Z,929.70
2018-02-20T11:46:26.939Z,929.73
2018-02-20T11:47:26.951Z,929.76
2018-02-20T11:48:26.930Z,929.80
2018-02-20T11:49:26.926Z,929.78
2018-02-20T11:50:26.938Z,929.76
2018-02-20T11:51:26.934Z,929.80
2018-02-20T11:52:26.926Z,929.77
2018-02-20T11:53:26.959Z,929.79
2018-02-20T11:54:26.900Z,929.70
2018-02-20T11:55:26.900Z,929.73
2018-02-20T11:56:26.913Z,929.72
2018-02-20T11:57:26.888Z,929.74
2018-02-20T11:58:26.905Z,929.79
2018-02-20T11:59:26.879Z,929.74
2018-02-20T12:00:26.892Z,929.76
2018-02-20T12:01:26.914Z,929.76
2018-02-20T12:02:26.871Z,929.81
2018-02-20T12:03:26.879Z,929.75
2018-02-20T12:04:26.877Z,929.77
2018-02-20T12:05:26.874Z,929.79
2018-02-20T12:06:26.870Z,929.83
2018-02-20T12:07:26.847Z,929.79
2018-02-20T12:08:26.843Z,929.81
2018-02-20T12:09:26.839Z,929.84
2018-02-20T12:10:26.838Z,929.82
2018-02-20T12:11:26.845Z,929.76
2018-02-20T12:12:26.844Z,929.74
2018-02-20T12:13:26.841Z,929.74
2018-02-20T12:14:26.837Z,929.67
2018-02-20T12:15:26.829Z,929.74
2018-02-20T12:16:26.815Z,929.77
2018-02-20T12:17:26.807Z,929.81
2018-02-20T12:18:26.822Z,929.78
2018-02-20T12:19:26.813Z,929.76
2018-02-20T12:20:26.816Z,929.81
2018-02-20T12:21:26.935Z,929.78
2018-02-20T12:22:26.807Z,929.83
2018-02-20T12:23:26.805Z,929.77
2018-02-20T12:24:26.898Z,929.82
2018-02-20T12:25:26.791Z,929.79
2018-02-20T12:26:26.791Z,929.86
2018-02-20T12:27:26.794Z,929.79
2018-02-20T12:28:26.783Z,929.77